sensor_id;sensor_type;location;lat;lon;timestamp;temperature;humidity
49222;DHT22;35047;37.588;-122.048;2022-11-20T00:01:29;18.10;46.40
49222;DHT22;35047;37.588;-122.048;2022-11-20T00:03:57;18.30;48.40
49222;DHT22;35047;37.588;-122.048;2022-11-20T00:06:24;18.40;46.70
49222;DHT22;35047;37.588;-122.048;2022-11-20T00:08:55;18.20;44.40
49222;DHT22;35047;37.588;-122.048;2022-11-20T00:11:24;18.20;46.50
49222;DHT22;35047;37.588;-122.048;2022-11-20T00:13:54;18.60;48.60
49222;DHT22;35047;37.588;-122.048;2022-11-20T00:18:51;19.00;45.40
49222;DHT22;35047;37.588;-122.048;2022-11-20T00:21:25;19.10;47.90
49222;DHT22;35047;37.588;-122.048;2022-11-20T00:23:54;19.10;48.00
49222;DHT22;35047;37.588;-122.048;2022-11-20T00:26:23;19.40;48.50
49222;DHT22;35047;37.588;-122.048;2022-11-20T00:29:01;19.60;48.60
49222;DHT22;35047;37.588;-122.048;2022-11-20T00:31:28;19.80;48.30
49222;DHT22;35047;37.588;-122.048;2022-11-20T00:33:55;19.60;48.00
49222;DHT22;35047;37.588;-122.048;2022-11-20T00:36:25;19.60;48.60
49222;DHT22;35047;37.588;-122.048;2022-11-20T00:38:53;19.60;48.80
49222;DHT22;35047;37.588;-122.048;2022-11-20T00:41:21;19.50;49.10
49222;DHT22;35047;37.588;-122.048;2022-11-20T00:43:48;19.60;49.50
49222;DHT22;35047;37.588;-122.048;2022-11-20T00:46:16;19.70;49.40
49222;DHT22;35047;37.588;-122.048;2022-11-20T00:48:44;19.60;49.40
49222;DHT22;35047;37.588;-122.048;2022-11-20T00:51:16;19.50;49.20
49222;DHT22;35047;37.588;-122.048;2022-11-20T00:53:43;18.90;50.20
49222;DHT22;35047;37.588;-122.048;2022-11-20T00:56:13;19.10;51.10
49222;DHT22;35047;37.588;-122.048;2022-11-20T00:58:42;18.70;50.20
49222;DHT22;35047;37.588;-122.048;2022-11-20T01:01:17;18.50;52.60
49222;DHT22;35047;37.588;-122.048;2022-11-20T01:03:47;18.70;52.00
49222;DHT22;35047;37.588;-122.048;2022-11-20T01:06:19;18.60;52.40
49222;DHT22;35047;37.588;-122.048;2022-11-20T01:08:46;18.80;52.20
49222;DHT22;35047;37.588;-122.048;2022-11-20T01:11:24;18.50;51.20
49222;DHT22;35047;37.588;-122.048;2022-11-20T01:13:52;18.00;51.30
49222;DHT22;35047;37.588;-122.048;2022-11-20T01:16:27;17.90;53.30
49222;DHT22;35047;37.588;-122.048;2022-11-20T01:18:57;18.10;53.50
49222;DHT22;35047;37.588;-122.048;2022-11-20T01:21:29;18.00;54.20
49222;DHT22;35047;37.588;-122.048;2022-11-20T01:23:57;18.00;53.90
49222;DHT22;35047;37.588;-122.048;2022-11-20T01:26:27;17.30;51.90
49222;DHT22;35047;37.588;-122.048;2022-11-20T01:28:54;17.50;54.40
49222;DHT22;35047;37.588;-122.048;2022-11-20T01:31:28;17.20;54.40
49222;DHT22;35047;37.588;-122.048;2022-11-20T01:33:57;17.10;53.70
49222;DHT22;35047;37.588;-122.048;2022-11-20T01:36:26;16.40;53.60
49222;DHT22;35047;37.588;-122.048;2022-11-20T01:38:54;16.20;55.70
49222;DHT22;35047;37.588;-122.048;2022-11-20T01:41:22;16.00;57.70
49222;DHT22;35047;37.588;-122.048;2022-11-20T01:44:10;16.30;57.50
49222;DHT22;35047;37.588;-122.048;2022-11-20T01:46:41;15.70;57.30
49222;DHT22;35047;37.588;-122.048;2022-11-20T01:52:00;16.10;58.70
49222;DHT22;35047;37.588;-122.048;2022-11-20T01:54:38;16.10;58.30
49222;DHT22;35047;37.588;-122.048;2022-11-20T01:57:08;15.90;58.10
49222;DHT22;35047;37.588;-122.048;2022-11-20T01:59:43;16.00;58.70
49222;DHT22;35047;37.588;-122.048;2022-11-20T02:02:11;16.10;58.80
49222;DHT22;35047;37.588;-122.048;2022-11-20T02:04:38;16.20;57.00
49222;DHT22;35047;37.588;-122.048;2022-11-20T02:07:06;15.40;58.00
49222;DHT22;35047;37.588;-122.048;2022-11-20T02:09:33;15.50;58.90
49222;DHT22;35047;37.588;-122.048;2022-11-20T02:12:01;15.70;59.70
49222;DHT22;35047;37.588;-122.048;2022-11-20T02:14:28;15.60;58.60
49222;DHT22;35047;37.588;-122.048;2022-11-20T02:16:55;15.70;59.90
49222;DHT22;35047;37.588;-122.048;2022-11-20T02:19:28;15.80;59.70
49222;DHT22;35047;37.588;-122.048;2022-11-20T02:22:31;15.10;58.00
49222;DHT22;35047;37.588;-122.048;2022-11-20T02:25:02;14.30;60.50
49222;DHT22;35047;37.588;-122.048;2022-11-20T02:27:30;13.80;63.40
49222;DHT22;35047;37.588;-122.048;2022-11-20T02:30:01;14.10;65.10
49222;DHT22;35047;37.588;-122.048;2022-11-20T02:32:34;14.20;62.10
49222;DHT22;35047;37.588;-122.048;2022-11-20T02:38:00;16.10;59.90
49222;DHT22;35047;37.588;-122.048;2022-11-20T02:40:28;17.00;58.70
49222;DHT22;35047;37.588;-122.048;2022-11-20T02:42:55;17.60;57.40
49222;DHT22;35047;37.588;-122.048;2022-11-20T02:45:23;18.30;55.30
49222;DHT22;35047;37.588;-122.048;2022-11-20T02:47:51;17.60;53.00
49222;DHT22;35047;37.588;-122.048;2022-11-20T02:50:19;16.90;54.60
49222;DHT22;35047;37.588;-122.048;2022-11-20T02:52:46;16.50;55.40
49222;DHT22;35047;37.588;-122.048;2022-11-20T02:55:14;17.50;55.20
49222;DHT22;35047;37.588;-122.048;2022-11-20T02:57:40;17.60;56.10
49222;DHT22;35047;37.588;-122.048;2022-11-20T03:00:07;18.10;54.30
49222;DHT22;35047;37.588;-122.048;2022-11-20T03:02:34;17.80;54.80
49222;DHT22;35047;37.588;-122.048;2022-11-20T03:05:01;18.80;52.30
49222;DHT22;35047;37.588;-122.048;2022-11-20T03:07:28;18.30;52.80
49222;DHT22;35047;37.588;-122.048;2022-11-20T03:09:56;18.30;51.70
49222;DHT22;35047;37.588;-122.048;2022-11-20T03:12:22;17.90;53.00
49222;DHT22;35047;37.588;-122.048;2022-11-20T03:14:49;17.80;54.60
49222;DHT22;35047;37.588;-122.048;2022-11-20T03:17:16;17.70;53.30
49222;DHT22;35047;37.588;-122.048;2022-11-20T03:19:42;17.60;53.40
49222;DHT22;35047;37.588;-122.048;2022-11-20T03:22:09;18.20;55.10
49222;DHT22;35047;37.588;-122.048;2022-11-20T03:24:35;17.40;53.60
49222;DHT22;35047;37.588;-122.048;2022-11-20T03:27:02;17.20;54.30
49222;DHT22;35047;37.588;-122.048;2022-11-20T03:29:29;17.20;55.50
49222;DHT22;35047;37.588;-122.048;2022-11-20T03:31:56;16.60;56.30
49222;DHT22;35047;37.588;-122.048;2022-11-20T03:34:24;18.00;56.10
49222;DHT22;35047;37.588;-122.048;2022-11-20T03:36:50;19.50;53.10
49222;DHT22;35047;37.588;-122.048;2022-11-20T03:39:17;18.60;51.20
49222;DHT22;35047;37.588;-122.048;2022-11-20T03:41:44;18.60;52.30
49222;DHT22;35047;37.588;-122.048;2022-11-20T03:44:11;19.30;53.20
49222;DHT22;35047;37.588;-122.048;2022-11-20T03:46:39;20.40;50.80
49222;DHT22;35047;37.588;-122.048;2022-11-20T03:49:06;20.10;48.10
49222;DHT22;35047;37.588;-122.048;2022-11-20T03:51:35;19.60;51.20
49222;DHT22;35047;37.588;-122.048;2022-11-20T03:54:05;20.70;49.70
49222;DHT22;35047;37.588;-122.048;2022-11-20T03:56:35;19.50;48.40
49222;DHT22;35047;37.588;-122.048;2022-11-20T03:59:03;17.70;51.70
49222;DHT22;35047;37.588;-122.048;2022-11-20T04:01:36;16.20;54.50
49222;DHT22;35047;37.588;-122.048;2022-11-20T04:04:05;15.20;57.50
49222;DHT22;35047;37.588;-122.048;2022-11-20T04:06:37;14.50;60.40
49222;DHT22;35047;37.588;-122.048;2022-11-20T04:09:04;15.10;61.20
49222;DHT22;35047;37.588;-122.048;2022-11-20T04:11:34;16.00;60.00
49222;DHT22;35047;37.588;-122.048;2022-11-20T04:14:03;16.50;55.80
49222;DHT22;35047;37.588;-122.048;2022-11-20T04:16:33;15.60;59.10
49222;DHT22;35047;37.588;-122.048;2022-11-20T04:19:02;16.80;58.30
49222;DHT22;35047;37.588;-122.048;2022-11-20T04:21:29;18.10;55.60
49222;DHT22;35047;37.588;-122.048;2022-11-20T04:23:56;19.10;53.20
49222;DHT22;35047;37.588;-122.048;2022-11-20T04:26:26;20.10;51.50
49222;DHT22;35047;37.588;-122.048;2022-11-20T04:28:53;20.10;49.30
49222;DHT22;35047;37.588;-122.048;2022-11-20T04:31:26;20.30;50.10
49222;DHT22;35047;37.588;-122.048;2022-11-20T04:33:54;20.30;49.60
49222;DHT22;35047;37.588;-122.048;2022-11-20T04:36:26;19.10;49.70
49222;DHT22;35047;37.588;-122.048;2022-11-20T04:38:57;17.80;51.70
49222;DHT22;35047;37.588;-122.048;2022-11-20T04:41:30;17.50;54.10
49222;DHT22;35047;37.588;-122.048;2022-11-20T04:44:00;17.80;53.20
49222;DHT22;35047;37.588;-122.048;2022-11-20T04:46:31;18.70;54.20
49222;DHT22;35047;37.588;-122.048;2022-11-20T04:48:58;20.00;51.40
49222;DHT22;35047;37.588;-122.048;2022-11-20T04:51:26;20.50;50.20
49222;DHT22;35047;37.588;-122.048;2022-11-20T04:53:56;20.80;49.60
49222;DHT22;35047;37.588;-122.048;2022-11-20T04:56:24;20.90;49.10
49222;DHT22;35047;37.588;-122.048;2022-11-20T04:58:50;21.40;48.10
49222;DHT22;35047;37.588;-122.048;2022-11-20T05:01:22;21.20;47.90
49222;DHT22;35047;37.588;-122.048;2022-11-20T05:03:49;20.60;47.80
49222;DHT22;35047;37.588;-122.048;2022-11-20T05:06:20;20.30;49.30
49222;DHT22;35047;37.588;-122.048;2022-11-20T05:08:46;21.00;48.40
49222;DHT22;35047;37.588;-122.048;2022-11-20T05:11:15;20.80;48.60
49222;DHT22;35047;37.588;-122.048;2022-11-20T05:13:42;21.00;48.10
49222;DHT22;35047;37.588;-122.048;2022-11-20T05:16:15;21.00;47.70
49222;DHT22;35047;37.588;-122.048;2022-11-20T05:18:42;21.00;47.80
49222;DHT22;35047;37.588;-122.048;2022-11-20T05:21:10;21.40;47.40
49222;DHT22;35047;37.588;-122.048;2022-11-20T05:23:37;21.30;47.20
49222;DHT22;35047;37.588;-122.048;2022-11-20T05:26:06;21.00;47.50
49222;DHT22;35047;37.588;-122.048;2022-11-20T05:28:34;19.80;48.00
49222;DHT22;35047;37.588;-122.048;2022-11-20T05:31:13;19.50;49.60
49222;DHT22;35047;37.588;-122.048;2022-11-20T05:33:41;18.80;50.10
49222;DHT22;35047;37.588;-122.048;2022-11-20T05:36:09;19.10;51.60
49222;DHT22;35047;37.588;-122.048;2022-11-20T05:38:37;19.60;51.20
49222;DHT22;35047;37.588;-122.048;2022-11-20T05:41:06;20.70;48.70
49222;DHT22;35047;37.588;-122.048;2022-11-20T05:43:37;21.10;48.50
49222;DHT22;35047;37.588;-122.048;2022-11-20T05:46:05;21.30;48.20
49222;DHT22;35047;37.588;-122.048;2022-11-20T05:48:34;21.60;47.40
49222;DHT22;35047;37.588;-122.048;2022-11-20T05:51:02;22.00;46.70
49222;DHT22;35047;37.588;-122.048;2022-11-20T05:53:30;21.00;46.90
49222;DHT22;35047;37.588;-122.048;2022-11-20T05:55:59;21.00;47.50
49222;DHT22;35047;37.588;-122.048;2022-11-20T05:58:27;21.70;46.90
49222;DHT22;35047;37.588;-122.048;2022-11-20T06:00:53;21.80;46.50
49222;DHT22;35047;37.588;-122.048;2022-11-20T06:03:20;21.80;46.30
49222;DHT22;35047;37.588;-122.048;2022-11-20T06:05:47;21.80;46.10
49222;DHT22;35047;37.588;-122.048;2022-11-20T06:08:14;22.00;45.80
49222;DHT22;35047;37.588;-122.048;2022-11-20T06:10:40;21.70;45.80
49222;DHT22;35047;37.588;-122.048;2022-11-20T06:13:07;21.60;46.20
49222;DHT22;35047;37.588;-122.048;2022-11-20T06:15:33;21.90;45.90
49222;DHT22;35047;37.588;-122.048;2022-11-20T06:18:00;21.80;45.90
49222;DHT22;35047;37.588;-122.048;2022-11-20T06:20:28;21.70;45.80
49222;DHT22;35047;37.588;-122.048;2022-11-20T06:22:56;22.10;45.80
49222;DHT22;35047;37.588;-122.048;2022-11-20T06:25:23;21.70;45.60
49222;DHT22;35047;37.588;-122.048;2022-11-20T06:27:50;21.50;45.70
49222;DHT22;35047;37.588;-122.048;2022-11-20T06:30:17;21.70;45.80
49222;DHT22;35047;37.588;-122.048;2022-11-20T06:32:44;22.10;45.60
49222;DHT22;35047;37.588;-122.048;2022-11-20T06:35:10;21.70;45.80
49222;DHT22;35047;37.588;-122.048;2022-11-20T06:37:37;21.80;45.60
49222;DHT22;35047;37.588;-122.048;2022-11-20T06:40:04;21.60;44.90
49222;DHT22;35047;37.588;-122.048;2022-11-20T06:42:32;21.20;46.20
49222;DHT22;35047;37.588;-122.048;2022-11-20T06:44:59;21.00;45.60
49222;DHT22;35047;37.588;-122.048;2022-11-20T06:47:26;20.10;46.90
49222;DHT22;35047;37.588;-122.048;2022-11-20T06:49:53;20.80;47.40
49222;DHT22;35047;37.588;-122.048;2022-11-20T06:52:20;21.10;46.70
49222;DHT22;35047;37.588;-122.048;2022-11-20T06:54:47;21.40;46.40
49222;DHT22;35047;37.588;-122.048;2022-11-20T06:57:13;21.30;46.10
49222;DHT22;35047;37.588;-122.048;2022-11-20T06:59:41;21.40;46.00
49222;DHT22;35047;37.588;-122.048;2022-11-20T07:02:12;20.90;45.30
49222;DHT22;35047;37.588;-122.048;2022-11-20T07:04:39;20.50;46.80
49222;DHT22;35047;37.588;-122.048;2022-11-20T07:07:05;20.90;46.90
49222;DHT22;35047;37.588;-122.048;2022-11-20T07:09:32;21.20;46.40
49222;DHT22;35047;37.588;-122.048;2022-11-20T07:11:59;21.40;46.00
49222;DHT22;35047;37.588;-122.048;2022-11-20T07:14:26;21.30;46.00
49222;DHT22;35047;37.588;-122.048;2022-11-20T07:16:53;21.30;45.90
49222;DHT22;35047;37.588;-122.048;2022-11-20T07:19:19;21.10;46.20
49222;DHT22;35047;37.588;-122.048;2022-11-20T07:21:47;21.00;46.10
49222;DHT22;35047;37.588;-122.048;2022-11-20T07:24:13;21.10;46.30
49222;DHT22;35047;37.588;-122.048;2022-11-20T07:26:41;21.20;46.00
49222;DHT22;35047;37.588;-122.048;2022-11-20T07:29:07;21.10;45.60
49222;DHT22;35047;37.588;-122.048;2022-11-20T07:31:34;21.20;46.20
49222;DHT22;35047;37.588;-122.048;2022-11-20T07:34:00;20.80;45.60
49222;DHT22;35047;37.588;-122.048;2022-11-20T07:36:27;20.60;46.80
49222;DHT22;35047;37.588;-122.048;2022-11-20T07:38:54;20.60;46.80
49222;DHT22;35047;37.588;-122.048;2022-11-20T07:41:21;19.80;46.20
49222;DHT22;35047;37.588;-122.048;2022-11-20T07:43:49;19.80;48.20
49222;DHT22;35047;37.588;-122.048;2022-11-20T07:46:15;19.90;48.00
49222;DHT22;35047;37.588;-122.048;2022-11-20T07:48:41;20.50;47.10
49222;DHT22;35047;37.588;-122.048;2022-11-20T07:51:09;20.00;47.60
49222;DHT22;35047;37.588;-122.048;2022-11-20T07:53:37;20.50;47.60
49222;DHT22;35047;37.588;-122.048;2022-11-20T07:56:03;20.90;46.60
49222;DHT22;35047;37.588;-122.048;2022-11-20T07:58:31;20.70;45.80
49222;DHT22;35047;37.588;-122.048;2022-11-20T08:01:07;20.50;47.00
49222;DHT22;35047;37.588;-122.048;2022-11-20T08:03:34;20.70;46.70
49222;DHT22;35047;37.588;-122.048;2022-11-20T08:06:03;21.30;46.10
49222;DHT22;35047;37.588;-122.048;2022-11-20T08:08:31;21.30;45.60
49222;DHT22;35047;37.588;-122.048;2022-11-20T08:10:58;20.50;46.30
49222;DHT22;35047;37.588;-122.048;2022-11-20T08:13:43;21.30;46.10
49222;DHT22;35047;37.588;-122.048;2022-11-20T08:16:29;21.70;45.60
49222;DHT22;35047;37.588;-122.048;2022-11-20T08:18:57;21.80;45.50
49222;DHT22;35047;37.588;-122.048;2022-11-20T08:21:24;21.80;45.30
49222;DHT22;35047;37.588;-122.048;2022-11-20T08:23:50;21.10;44.50
49222;DHT22;35047;37.588;-122.048;2022-11-20T08:26:17;19.70;46.60
49222;DHT22;35047;37.588;-122.048;2022-11-20T08:28:44;19.40;48.00
49222;DHT22;35047;37.588;-122.048;2022-11-20T08:31:11;20.50;47.50
49222;DHT22;35047;37.588;-122.048;2022-11-20T08:33:37;20.70;47.10
49222;DHT22;35047;37.588;-122.048;2022-11-20T08:36:05;20.70;46.40
49222;DHT22;35047;37.588;-122.048;2022-11-20T08:38:31;20.60;47.00
49222;DHT22;35047;37.588;-122.048;2022-11-20T08:40:59;20.40;46.40
49222;DHT22;35047;37.588;-122.048;2022-11-20T08:43:44;20.50;47.10
49222;DHT22;35047;37.588;-122.048;2022-11-20T08:46:11;20.10;46.70
49222;DHT22;35047;37.588;-122.048;2022-11-20T08:48:37;19.90;47.20
49222;DHT22;35047;37.588;-122.048;2022-11-20T08:51:06;19.40;46.70
49222;DHT22;35047;37.588;-122.048;2022-11-20T08:53:32;19.50;48.30
49222;DHT22;35047;37.588;-122.048;2022-11-20T08:55:59;20.40;47.50
49222;DHT22;35047;37.588;-122.048;2022-11-20T08:58:26;20.60;47.00
49222;DHT22;35047;37.588;-122.048;2022-11-20T09:00:54;20.40;46.80
49222;DHT22;35047;37.588;-122.048;2022-11-20T09:03:20;19.50;46.60
49222;DHT22;35047;37.588;-122.048;2022-11-20T09:05:47;19.60;48.40
49222;DHT22;35047;37.588;-122.048;2022-11-20T09:08:14;18.40;47.80
49222;DHT22;35047;37.588;-122.048;2022-11-20T09:10:41;18.30;49.70
49222;DHT22;35047;37.588;-122.048;2022-11-20T09:13:08;18.60;50.10
49222;DHT22;35047;37.588;-122.048;2022-11-20T09:15:35;19.70;48.70
49222;DHT22;35047;37.588;-122.048;2022-11-20T09:18:02;20.20;47.80
49222;DHT22;35047;37.588;-122.048;2022-11-20T09:20:31;20.50;47.40
49222;DHT22;35047;37.588;-122.048;2022-11-20T09:22:57;20.00;45.70
49222;DHT22;35047;37.588;-122.048;2022-11-20T09:25:24;17.50;48.50
49222;DHT22;35047;37.588;-122.048;2022-11-20T09:27:56;16.40;53.80
49222;DHT22;35047;37.588;-122.048;2022-11-20T09:30:24;17.00;50.80
49222;DHT22;35047;37.588;-122.048;2022-11-20T09:32:50;17.60;52.20
49222;DHT22;35047;37.588;-122.048;2022-11-20T09:35:17;18.20;51.00
49222;DHT22;35047;37.588;-122.048;2022-11-20T09:37:45;18.80;50.00
49222;DHT22;35047;37.588;-122.048;2022-11-20T09:40:23;19.40;49.00
49222;DHT22;35047;37.588;-122.048;2022-11-20T09:52:00;18.90;45.90
49222;DHT22;35047;37.588;-122.048;2022-11-20T09:54:36;19.50;47.70
49222;DHT22;35047;37.588;-122.048;2022-11-20T09:57:10;19.20;47.80
49222;DHT22;35047;37.588;-122.048;2022-11-20T09:59:53;19.10;47.70
49222;DHT22;35047;37.588;-122.048;2022-11-20T10:02:27;19.10;48.90
49222;DHT22;35047;37.588;-122.048;2022-11-20T10:05:18;18.80;48.90
49222;DHT22;35047;37.588;-122.048;2022-11-20T10:25:15;20.20;47.00
49222;DHT22;35047;37.588;-122.048;2022-11-20T10:27:55;19.30;47.10
49222;DHT22;35047;37.588;-122.048;2022-11-20T10:30:23;18.90;48.40
49222;DHT22;35047;37.588;-122.048;2022-11-20T10:33:35;19.70;47.90
49222;DHT22;35047;37.588;-122.048;2022-11-20T10:41:25;19.30;47.90
49222;DHT22;35047;37.588;-122.048;2022-11-20T10:44:05;19.70;47.40
49222;DHT22;35047;37.588;-122.048;2022-11-20T10:46:50;20.20;46.50
49222;DHT22;35047;37.588;-122.048;2022-11-20T10:49:19;19.90;46.80
49222;DHT22;35047;37.588;-122.048;2022-11-20T10:54:38;19.10;46.50
49222;DHT22;35047;37.588;-122.048;2022-11-20T10:57:17;18.30;48.60
49222;DHT22;35047;37.588;-122.048;2022-11-20T11:00:11;18.60;48.40
49222;DHT22;35047;37.588;-122.048;2022-11-20T11:02:52;18.90;48.30
49222;DHT22;35047;37.588;-122.048;2022-11-20T11:08:15;18.90;46.90
49222;DHT22;35047;37.588;-122.048;2022-11-20T11:13:30;19.00;48.10
49222;DHT22;35047;37.588;-122.048;2022-11-20T11:15:57;18.70;47.70
49222;DHT22;35047;37.588;-122.048;2022-11-20T11:18:32;18.40;48.50
49222;DHT22;35047;37.588;-122.048;2022-11-20T11:21:02;18.30;48.20
49222;DHT22;35047;37.588;-122.048;2022-11-20T11:26:02;18.70;48.40
49222;DHT22;35047;37.588;-122.048;2022-11-20T11:28:30;18.40;48.30
49222;DHT22;35047;37.588;-122.048;2022-11-20T11:30:57;18.40;48.80
49222;DHT22;35047;37.588;-122.048;2022-11-20T11:33:28;18.70;47.90
49222;DHT22;35047;37.588;-122.048;2022-11-20T11:35:59;18.70;48.10
49222;DHT22;35047;37.588;-122.048;2022-11-20T11:40:56;19.10;47.50
49222;DHT22;35047;37.588;-122.048;2022-11-20T11:43:26;19.30;45.60
49222;DHT22;35047;37.588;-122.048;2022-11-20T11:54:43;19.20;47.60
49222;DHT22;35047;37.588;-122.048;2022-11-20T12:00:06;18.40;48.30
49222;DHT22;35047;37.588;-122.048;2022-11-20T12:02:49;16.80;48.20
49222;DHT22;35047;37.588;-122.048;2022-11-20T12:10:53;17.10;49.70
49222;DHT22;35047;37.588;-122.048;2022-11-20T12:16:13;17.40;48.70
49222;DHT22;35047;37.588;-122.048;2022-11-20T12:18:41;18.60;48.80
49222;DHT22;35047;37.588;-122.048;2022-11-20T12:21:34;18.80;47.50
49222;DHT22;35047;37.588;-122.048;2022-11-20T12:38:39;18.20;49.60
49222;DHT22;35047;37.588;-122.048;2022-11-20T12:47:23;18.00;46.80
49222;DHT22;35047;37.588;-122.048;2022-11-20T13:00:23;16.80;48.60
49222;DHT22;35047;37.588;-122.048;2022-11-20T13:08:38;18.10;49.20
49222;DHT22;35047;37.588;-122.048;2022-11-20T13:14:14;17.40;48.20
49222;DHT22;35047;37.588;-122.048;2022-11-20T13:19:41;17.20;50.70
49222;DHT22;35047;37.588;-122.048;2022-11-20T13:22:13;17.00;50.40
49222;DHT22;35047;37.588;-122.048;2022-11-20T13:24:53;18.00;49.40
49222;DHT22;35047;37.588;-122.048;2022-11-20T13:27:21;17.70;47.60
49222;DHT22;35047;37.588;-122.048;2022-11-20T13:30:13;16.30;49.10
49222;DHT22;35047;37.588;-122.048;2022-11-20T13:35:30;17.40;50.30
49222;DHT22;35047;37.588;-122.048;2022-11-20T13:38:09;17.60;49.00
49222;DHT22;35047;37.588;-122.048;2022-11-20T13:40:59;18.00;48.60
49222;DHT22;35047;37.588;-122.048;2022-11-20T13:46:02;16.90;48.70
49222;DHT22;35047;37.588;-122.048;2022-11-20T13:48:43;17.60;49.30
49222;DHT22;35047;37.588;-122.048;2022-11-20T13:51:45;18.40;48.30
49222;DHT22;35047;37.588;-122.048;2022-11-20T13:54:36;18.80;47.20
49222;DHT22;35047;37.588;-122.048;2022-11-20T14:00:20;18.30;47.10
49222;DHT22;35047;37.588;-122.048;2022-11-20T14:05:36;18.40;47.20
49222;DHT22;35047;37.588;-122.048;2022-11-20T14:08:10;17.50;48.50
49222;DHT22;35047;37.588;-122.048;2022-11-20T14:10:39;18.30;48.40
49222;DHT22;35047;37.588;-122.048;2022-11-20T14:13:20;18.40;47.70
49222;DHT22;35047;37.588;-122.048;2022-11-20T14:15:46;18.40;46.10
49222;DHT22;35047;37.588;-122.048;2022-11-20T14:18:22;17.90;47.90
49222;DHT22;35047;37.588;-122.048;2022-11-20T14:20:50;18.20;48.10
49222;DHT22;35047;37.588;-122.048;2022-11-20T14:23:28;17.00;46.70
49222;DHT22;35047;37.588;-122.048;2022-11-20T14:25:55;16.50;49.90
49222;DHT22;35047;37.588;-122.048;2022-11-20T14:28:27;16.80;50.00
49222;DHT22;35047;37.588;-122.048;2022-11-20T14:30:54;16.20;50.20
49222;DHT22;35047;37.588;-122.048;2022-11-20T14:33:23;16.50;50.70
49222;DHT22;35047;37.588;-122.048;2022-11-20T14:35:56;17.50;49.50
49222;DHT22;35047;37.588;-122.048;2022-11-20T14:38:31;18.30;48.40
49222;DHT22;35047;37.588;-122.048;2022-11-20T14:41:14;18.30;48.10
49222;DHT22;35047;37.588;-122.048;2022-11-20T14:43:46;18.60;48.00
49222;DHT22;35047;37.588;-122.048;2022-11-20T14:46:14;18.80;47.50
49222;DHT22;35047;37.588;-122.048;2022-11-20T14:51:11;18.50;47.70
49222;DHT22;35047;37.588;-122.048;2022-11-20T14:53:38;18.20;48.20
49222;DHT22;35047;37.588;-122.048;2022-11-20T14:56:05;18.00;47.80
49222;DHT22;35047;37.588;-122.048;2022-11-20T14:58:33;17.70;48.40
49222;DHT22;35047;37.588;-122.048;2022-11-20T15:01:05;16.90;49.00
49222;DHT22;35047;37.588;-122.048;2022-11-20T15:03:37;15.60;50.90
49222;DHT22;35047;37.588;-122.048;2022-11-20T15:06:05;15.50;52.80
49222;DHT22;35047;37.588;-122.048;2022-11-20T15:08:34;14.90;53.10
49222;DHT22;35047;37.588;-122.048;2022-11-20T15:11:02;14.70;54.60
49222;DHT22;35047;37.588;-122.048;2022-11-20T15:13:38;14.30;55.10
49222;DHT22;35047;37.588;-122.048;2022-11-20T15:16:18;13.60;56.10
49222;DHT22;35047;37.588;-122.048;2022-11-20T15:18:46;13.00;58.60
49222;DHT22;35047;37.588;-122.048;2022-11-20T15:21:18;12.40;59.00
49222;DHT22;35047;37.588;-122.048;2022-11-20T15:23:47;11.60;59.50
49222;DHT22;35047;37.588;-122.048;2022-11-20T15:26:23;11.80;62.80
49222;DHT22;35047;37.588;-122.048;2022-11-20T15:28:51;12.00;62.20
49222;DHT22;35047;37.588;-122.048;2022-11-20T15:31:21;11.60;64.00
49222;DHT22;35047;37.588;-122.048;2022-11-20T15:33:49;11.80;63.40
49222;DHT22;35047;37.588;-122.048;2022-11-20T15:36:16;11.00;63.30
49222;DHT22;35047;37.588;-122.048;2022-11-20T15:38:43;10.10;67.30
49222;DHT22;35047;37.588;-122.048;2022-11-20T15:41:10;9.70;67.60
49222;DHT22;35047;37.588;-122.048;2022-11-20T15:43:37;8.90;71.00
49222;DHT22;35047;37.588;-122.048;2022-11-20T15:46:10;8.30;74.70
49222;DHT22;35047;37.588;-122.048;2022-11-20T15:48:44;8.90;76.60
49222;DHT22;35047;37.588;-122.048;2022-11-20T15:53:39;9.20;73.10
49222;DHT22;35047;37.588;-122.048;2022-11-20T15:56:15;9.20;75.90
49222;DHT22;35047;37.588;-122.048;2022-11-20T15:58:43;9.80;75.00
49222;DHT22;35047;37.588;-122.048;2022-11-20T16:01:14;10.10;73.50
49222;DHT22;35047;37.588;-122.048;2022-11-20T16:03:43;10.10;73.30
49222;DHT22;35047;37.588;-122.048;2022-11-20T16:06:10;10.00;75.40
49222;DHT22;35047;37.588;-122.048;2022-11-20T16:08:37;10.50;73.90
49222;DHT22;35047;37.588;-122.048;2022-11-20T16:11:04;10.30;73.60
49222;DHT22;35047;37.588;-122.048;2022-11-20T16:13:31;10.30;75.20
49222;DHT22;35047;37.588;-122.048;2022-11-20T16:16:25;10.60;73.90
49222;DHT22;35047;37.588;-122.048;2022-11-20T16:18:57;10.80;74.00
49222;DHT22;35047;37.588;-122.048;2022-11-20T16:21:23;11.00;73.80
49222;DHT22;35047;37.588;-122.048;2022-11-20T16:24:00;11.00;74.90
49222;DHT22;35047;37.588;-122.048;2022-11-20T16:26:28;11.50;73.80
49222;DHT22;35047;37.588;-122.048;2022-11-20T16:28:55;11.50;73.80
49222;DHT22;35047;37.588;-122.048;2022-11-20T16:31:22;11.50;75.50
49222;DHT22;35047;37.588;-122.048;2022-11-20T16:33:52;11.80;75.40
49222;DHT22;35047;37.588;-122.048;2022-11-20T16:36:22;12.10;73.60
49222;DHT22;35047;37.588;-122.048;2022-11-20T16:39:00;11.90;73.50
49222;DHT22;35047;37.588;-122.048;2022-11-20T16:41:31;12.80;75.50
49222;DHT22;35047;37.588;-122.048;2022-11-20T16:43:59;13.00;74.00
49222;DHT22;35047;37.588;-122.048;2022-11-20T16:46:28;14.20;72.80
49222;DHT22;35047;37.588;-122.048;2022-11-20T16:49:00;15.10;69.70
49222;DHT22;35047;37.588;-122.048;2022-11-20T16:51:28;15.70;67.70
49222;DHT22;35047;37.588;-122.048;2022-11-20T16:53:56;16.30;66.10
49222;DHT22;35047;37.588;-122.048;2022-11-20T16:56:25;16.10;63.80
49222;DHT22;35047;37.588;-122.048;2022-11-20T16:58:54;16.80;64.70
49222;DHT22;35047;37.588;-122.048;2022-11-20T17:01:22;16.70;61.00
49222;DHT22;35047;37.588;-122.048;2022-11-20T17:03:58;16.70;62.70
49222;DHT22;35047;37.588;-122.048;2022-11-20T17:06:26;17.10;63.40
49222;DHT22;35047;37.588;-122.048;2022-11-20T17:08:54;17.60;62.00
49222;DHT22;35047;37.588;-122.048;2022-11-20T17:11:22;17.20;57.10
49222;DHT22;35047;37.588;-122.048;2022-11-20T17:13:48;16.50;59.00
49222;DHT22;35047;37.588;-122.048;2022-11-20T17:16:20;16.20;59.70
49222;DHT22;35047;37.588;-122.048;2022-11-20T17:18:59;15.90;58.70